createdAt,value
2023-06-29T00:00:58.338Z,14.58
2023-06-29T00:03:59.926Z,14.59
2023-06-29T00:07:04.125Z,14.72
2023-06-29T00:10:06.102Z,14.70
2023-06-29T00:13:07.507Z,14.74
2023-06-29T00:16:08.946Z,14.67
2023-06-29T00:19:12.965Z,14.49
2023-06-29T00:22:14.815Z,14.38
2023-06-29T00:25:18.081Z,14.46
2023-06-29T00:28:19.611Z,14.42
2023-06-29T00:31:23.523Z,14.32
2023-06-29T00:34:24.968Z,14.29
2023-06-29T00:37:26.374Z,14.23
2023-06-29T00:40:27.794Z,14.11
2023-06-29T00:43:29.225Z,14.10
2023-06-29T00:46:30.686Z,13.96
2023-06-29T00:49:32.187Z,13.96
2023-06-29T00:52:33.566Z,13.85
2023-06-29T00:55:34.974Z,13.92
2023-06-29T00:58:36.496Z,13.97
2023-06-29T01:01:40.970Z,13.95
2023-06-29T01:04:42.749Z,14.02
2023-06-29T01:07:47.096Z,13.99
2023-06-29T01:10:48.512Z,13.84
2023-06-29T01:13:49.910Z,13.77
2023-06-29T01:16:51.354Z,13.72
2023-06-29T01:19:52.990Z,13.66
2023-06-29T01:23:00.923Z,13.72
2023-06-29T01:26:02.353Z,13.75
2023-06-29T01:29:05.183Z,13.82
2023-06-29T01:32:08.419Z,13.84
2023-06-29T01:35:09.930Z,13.94
2023-06-29T01:38:16.244Z,13.84
2023-06-29T01:41:17.898Z,13.80
2023-06-29T01:44:19.928Z,13.62
2023-06-29T01:47:21.565Z,13.53
2023-06-29T01:50:22.975Z,13.58
2023-06-29T01:53:24.369Z,13.52
2023-06-29T01:56:25.806Z,13.46
2023-06-29T01:59:27.491Z,13.57
2023-06-29T02:02:28.988Z,13.66
2023-06-29T02:05:30.512Z,13.49
2023-06-29T02:08:31.921Z,13.25
2023-06-29T02:11:33.272Z,13.16
2023-06-29T02:14:34.706Z,13.31
2023-06-29T02:17:36.185Z,13.25
2023-06-29T02:20:37.600Z,13.25
2023-06-29T02:23:39.026Z,13.17
2023-06-29T02:26:40.420Z,13.21
2023-06-29T02:29:41.823Z,13.13
2023-06-29T02:32:43.374Z,13.02
2023-06-29T02:35:45.054Z,13.04
2023-06-29T02:38:46.615Z,13.00
2023-06-29T02:41:48.000Z,12.98
2023-06-29T02:44:49.358Z,12.94
2023-06-29T02:47:50.838Z,12.90
2023-06-29T02:50:52.302Z,12.98
2023-06-29T02:53:53.756Z,13.14
2023-06-29T02:56:55.205Z,13.24
2023-06-29T02:59:56.591Z,13.35
2023-06-29T03:02:58.141Z,13.48
2023-06-29T03:05:59.615Z,13.31
2023-06-29T03:09:00.997Z,13.32
2023-06-29T03:12:02.427Z,13.21
2023-06-29T03:15:04.038Z,13.19
2023-06-29T03:18:05.448Z,13.20
2023-06-29T03:21:16.276Z,13.14
2023-06-29T03:24:19.145Z,13.01
2023-06-29T03:27:20.590Z,12.96
2023-06-29T03:30:22.002Z,13.03
2023-06-29T03:33:23.419Z,12.98
2023-06-29T03:36:25.121Z,12.96
2023-06-29T03:39:26.522Z,12.95
2023-06-29T03:42:27.950Z,12.96
2023-06-29T03:45:29.363Z,13.10
2023-06-29T03:48:31.012Z,13.15
2023-06-29T03:51:32.590Z,13.24
2023-06-29T03:54:33.975Z,13.16
2023-06-29T03:57:35.425Z,13.08
2023-06-29T04:00:36.788Z,13.07
2023-06-29T04:03:38.195Z,13.07
2023-06-29T04:06:39.714Z,13.28
2023-06-29T04:09:41.175Z,13.28
2023-06-29T04:12:42.626Z,13.18
2023-06-29T04:15:44.529Z,13.30
2023-06-29T04:18:46.445Z,13.34
2023-06-29T04:21:47.858Z,13.48
2023-06-29T04:24:49.304Z,13.49
2023-06-29T04:27:50.728Z,13.66
2023-06-29T04:30:52.144Z,13.84
2023-06-29T04:33:53.558Z,13.91
2023-06-29T04:36:57.640Z,13.96
2023-06-29T04:39:59.132Z,14.01
2023-06-29T04:43:00.550Z,13.95
2023-06-29T04:46:02.295Z,14.16
2023-06-29T04:49:06.553Z,14.22
2023-06-29T04:52:11.174Z,14.30
2023-06-29T04:55:12.711Z,14.41
2023-06-29T04:58:14.208Z,14.51
2023-06-29T05:01:15.704Z,14.66
2023-06-29T05:04:17.628Z,14.82
2023-06-29T05:07:20.873Z,14.91
2023-06-29T05:10:22.424Z,15.03
2023-06-29T05:13:23.860Z,15.09
2023-06-29T05:16:25.358Z,15.21
2023-06-29T05:19:26.912Z,15.41
2023-06-29T05:22:28.419Z,15.54
2023-06-29T05:25:29.889Z,15.63
2023-06-29T05:28:31.283Z,15.76
2023-06-29T05:31:32.794Z,15.89
2023-06-29T05:34:34.389Z,16.00
2023-06-29T05:37:35.865Z,16.05
2023-06-29T05:40:37.394Z,16.25
2023-06-29T05:43:38.828Z,16.38
2023-06-29T05:46:40.486Z,16.59
2023-06-29T05:49:42.077Z,16.75
2023-06-29T05:52:43.478Z,16.83
2023-06-29T05:55:44.877Z,16.91
2023-06-29T05:58:46.288Z,17.05
2023-06-29T06:01:47.829Z,17.21
2023-06-29T06:04:49.281Z,17.42
2023-06-29T06:07:50.666Z,17.58
2023-06-29T06:10:52.741Z,17.96
2023-06-29T06:13:54.219Z,18.07
2023-06-29T06:16:55.703Z,18.32
2023-06-29T06:19:57.169Z,18.44
2023-06-29T06:22:58.841Z,18.42
2023-06-29T06:26:00.360Z,18.57
2023-06-29T06:29:01.738Z,18.86
2023-06-29T06:32:03.596Z,18.88
2023-06-29T06:35:05.990Z,19.11
2023-06-29T06:38:07.403Z,19.23
2023-06-29T06:41:08.858Z,19.45
2023-06-29T06:44:10.270Z,19.42
2023-06-29T06:47:11.671Z,19.22
2023-06-29T06:50:13.134Z,19.47
2023-06-29T06:53:14.610Z,19.58
2023-06-29T06:56:16.025Z,19.71
2023-06-29T06:59:17.488Z,19.82
2023-06-29T07:02:19.118Z,19.47
2023-06-29T07:05:20.501Z,19.56
2023-06-29T07:08:22.527Z,19.66
2023-06-29T07:11:23.961Z,19.93
2023-06-29T07:14:25.458Z,20.07
2023-06-29T07:17:28.770Z,19.88
2023-06-29T07:26:39.482Z,20.26
2023-06-29T07:29:43.752Z,20.29
2023-06-29T07:32:45.504Z,20.24
2023-06-29T07:35:47.136Z,20.36
2023-06-29T07:38:48.593Z,20.81
2023-06-29T07:41:50.218Z,20.99
2023-06-29T07:44:51.662Z,21.20
2023-06-29T07:47:53.468Z,21.37
2023-06-29T07:50:55.117Z,21.19
2023-06-29T07:53:56.640Z,21.12
2023-06-29T08:00:02.542Z,21.75
2023-06-29T08:03:04.042Z,21.93
2023-06-29T08:09:10.048Z,22.86
2023-06-29T08:12:11.440Z,22.90
2023-06-29T08:15:12.824Z,23.17
2023-06-29T08:18:14.255Z,23.41
2023-06-29T08:21:15.640Z,23.16
2023-06-29T08:24:17.909Z,22.96
2023-06-29T08:27:20.797Z,22.92
2023-06-29T08:30:22.496Z,22.95
2023-06-29T08:33:24.941Z,23.18
2023-06-29T08:36:29.189Z,23.15
2023-06-29T08:39:31.196Z,22.98
2023-06-29T08:42:32.622Z,23.11
2023-06-29T08:45:34.047Z,23.26
2023-06-29T08:48:35.528Z,23.28
2023-06-29T08:51:38.203Z,23.15
2023-06-29T08:54:39.796Z,23.18
2023-06-29T08:57:41.189Z,23.17
2023-06-29T09:00:42.747Z,23.23
2023-06-29T09:03:44.468Z,23.27
2023-06-29T09:06:46.666Z,23.07
2023-06-29T09:09:48.102Z,23.24
2023-06-29T09:12:50.501Z,23.35
2023-06-29T09:15:52.293Z,23.42
2023-06-29T09:18:55.593Z,23.41
2023-06-29T09:21:59.175Z,23.73
2023-06-29T09:25:07.683Z,23.87
2023-06-29T09:28:18.334Z,24.49
2023-06-29T09:31:20.281Z,24.63
2023-06-29T09:34:22.233Z,25.07
2023-06-29T09:37:23.633Z,24.90
2023-06-29T09:40:25.054Z,24.89
2023-06-29T09:43:26.873Z,24.77
2023-06-29T09:46:29.640Z,24.88
2023-06-29T09:49:31.592Z,24.92
2023-06-29T09:52:33.133Z,25.44
2023-06-29T09:55:34.807Z,25.83
2023-06-29T09:58:36.171Z,25.84
2023-06-29T10:01:38.109Z,26.05
2023-06-29T10:04:42.477Z,26.35
2023-06-29T10:07:44.020Z,26.02
2023-06-29T10:10:45.739Z,26.86
2023-06-29T10:13:48.911Z,26.42
2023-06-29T10:16:51.709Z,26.04
2023-06-29T10:19:53.310Z,25.87
2023-06-29T10:22:54.814Z,26.20
2023-06-29T10:25:56.197Z,26.33
2023-06-29T10:28:57.590Z,26.90
2023-06-29T10:31:59.220Z,26.89
2023-06-29T10:35:01.384Z,26.79
2023-06-29T10:38:02.870Z,26.41
2023-06-29T10:41:06.000Z,26.58
2023-06-29T10:44:07.492Z,26.02
2023-06-29T10:47:13.980Z,25.88
2023-06-29T10:50:15.385Z,25.81
2023-06-29T10:53:17.584Z,25.05
2023-06-29T10:56:31.635Z,25.64
2023-06-29T10:59:34.834Z,25.80
2023-06-29T11:02:36.253Z,25.86
2023-06-29T11:05:37.803Z,25.93
2023-06-29T11:08:39.195Z,25.91
2023-06-29T11:11:40.979Z,26.02
2023-06-29T11:14:43.411Z,25.67
2023-06-29T11:17:47.278Z,25.40
2023-06-29T11:20:48.740Z,25.10
2023-06-29T11:23:51.442Z,25.07
2023-06-29T11:26:54.126Z,25.17
2023-06-29T11:29:56.043Z,25.20
2023-06-29T11:32:57.559Z,25.24
2023-06-29T11:36:01.797Z,25.05
2023-06-29T11:39:10.329Z,25.16
2023-06-29T11:42:11.915Z,25.22
2023-06-29T11:45:13.386Z,25.28
2023-06-29T11:48:14.818Z,25.39
2023-06-29T11:51:17.790Z,25.96
2023-06-29T11:54:19.285Z,25.91
2023-06-29T11:57:21.182Z,25.93
2023-06-29T12:00:23.165Z,25.50
2023-06-29T12:03:25.060Z,25.43
2023-06-29T12:06:26.531Z,24.94
2023-06-29T12:09:31.727Z,25.39
2023-06-29T12:12:42.124Z,25.68
2023-06-29T12:17:59.148Z,25.36
2023-06-29T12:19:11.572Z,25.77
2023-06-29T12:22:15.333Z,25.86
2023-06-29T12:25:17.457Z,26.13
2023-06-29T12:28:19.622Z,26.55
2023-06-29T12:31:25.160Z,26.50
2023-06-29T12:34:26.581Z,26.25
2023-06-29T12:37:27.946Z,26.37
2023-06-29T12:40:30.504Z,26.40
2023-06-29T12:43:33.418Z,25.80
2023-06-29T12:46:34.827Z,25.70
2023-06-29T12:49:37.756Z,25.99
2023-06-29T12:52:39.212Z,26.06
2023-06-29T12:55:40.993Z,26.23
2023-06-29T12:58:42.459Z,26.08
2023-06-29T13:01:43.870Z,25.65
2023-06-29T13:04:45.326Z,25.91
2023-06-29T13:07:46.764Z,25.81
2023-06-29T13:10:48.183Z,26.06
2023-06-29T13:13:49.545Z,25.89
2023-06-29T13:16:50.980Z,25.84
2023-06-29T13:19:52.540Z,26.13
2023-06-29T13:22:53.977Z,26.41
2023-06-29T13:25:55.374Z,26.45
2023-06-29T13:28:56.884Z,26.19
2023-06-29T13:32:00.529Z,26.45
2023-06-29T13:35:02.149Z,26.45
2023-06-29T13:38:03.537Z,26.41
2023-06-29T13:41:05.150Z,26.03
2023-06-29T13:44:06.682Z,26.28
2023-06-29T13:47:08.154Z,26.28
2023-06-29T13:50:09.942Z,26.46
2023-06-29T13:53:11.414Z,25.93
2023-06-29T13:56:12.815Z,26.48
2023-06-29T13:59:14.216Z,26.73
2023-06-29T14:02:15.736Z,26.41
2023-06-29T14:05:17.178Z,26.65
2023-06-29T14:08:18.579Z,26.79
2023-06-29T14:11:19.957Z,26.43
2023-06-29T14:14:21.338Z,26.35
2023-06-29T14:17:22.899Z,26.06
2023-06-29T14:20:24.393Z,26.02
2023-06-29T14:23:26.265Z,26.39
2023-06-29T14:26:27.678Z,26.35
2023-06-29T14:29:29.327Z,26.48
2023-06-29T14:32:30.758Z,26.48
2023-06-29T14:35:32.385Z,26.12
2023-06-29T14:38:33.919Z,25.77
2023-06-29T14:41:35.402Z,26.12
2023-06-29T14:44:36.804Z,26.40
2023-06-29T14:47:38.251Z,26.37
2023-06-29T14:50:39.712Z,26.60
2023-06-29T14:53:41.283Z,26.50
2023-06-29T14:56:42.680Z,26.74
2023-06-29T14:59:44.083Z,26.27
2023-06-29T15:02:45.592Z,26.74
2023-06-29T15:05:47.654Z,26.88
2023-06-29T15:08:49.297Z,26.38
2023-06-29T15:11:50.981Z,26.04
2023-06-29T15:14:52.410Z,25.84
2023-06-29T15:17:53.866Z,25.85
2023-06-29T15:20:55.508Z,25.79
2023-06-29T15:23:56.924Z,25.92
2023-06-29T15:26:58.546Z,25.97
2023-06-29T15:30:00.753Z,26.26
2023-06-29T15:33:02.364Z,26.31
2023-06-29T15:36:03.839Z,26.61
2023-06-29T15:39:05.250Z,26.51
2023-06-29T15:42:06.675Z,26.55
2023-06-29T15:45:08.240Z,26.41
2023-06-29T15:48:09.764Z,26.10
2023-06-29T15:51:11.298Z,26.28
2023-06-29T15:54:12.750Z,26.63
2023-06-29T15:57:14.171Z,26.82
2023-06-29T16:00:15.718Z,26.27
2023-06-29T16:03:17.209Z,26.26
2023-06-29T16:06:28.575Z,26.35
2023-06-29T16:09:33.287Z,26.16
2023-06-29T16:12:34.740Z,26.47
2023-06-29T16:15:36.367Z,26.41
2023-06-29T16:18:37.765Z,26.50
2023-06-29T16:21:40.160Z,26.38
2023-06-29T16:24:41.545Z,26.53
2023-06-29T16:27:42.942Z,26.61
2023-06-29T16:30:44.327Z,26.51
2023-06-29T16:33:46.981Z,26.43
2023-06-29T16:36:48.442Z,26.53
2023-06-29T16:39:49.913Z,26.51
2023-06-29T16:42:51.331Z,26.50
2023-06-29T16:45:52.785Z,26.54
2023-06-29T16:48:57.889Z,26.35
2023-06-29T16:51:59.494Z,26.36
2023-06-29T16:55:00.909Z,26.48
2023-06-29T16:58:03.845Z,26.22
2023-06-29T17:01:05.280Z,26.27
2023-06-29T17:04:06.881Z,26.39
2023-06-29T17:07:08.479Z,26.29
2023-06-29T17:10:10.015Z,26.21
2023-06-29T17:13:11.428Z,26.27
2023-06-29T17:16:12.933Z,26.17
2023-06-29T17:19:14.619Z,26.16
2023-06-29T17:22:16.017Z,25.95
2023-06-29T17:25:17.448Z,26.01
2023-06-29T17:28:19.156Z,26.06
2023-06-29T17:31:20.603Z,25.93
2023-06-29T17:34:22.026Z,25.94
2023-06-29T17:37:23.435Z,25.94
2023-06-29T17:40:25.031Z,26.14
2023-06-29T17:43:26.530Z,25.96
2023-06-29T17:46:27.986Z,25.96
2023-06-29T17:49:29.378Z,25.78
2023-06-29T17:52:31.309Z,25.76
2023-06-29T17:55:32.776Z,25.64
2023-06-29T17:58:34.164Z,25.64
2023-06-29T18:01:35.594Z,25.59
2023-06-29T18:04:37.122Z,25.81
2023-06-29T18:07:38.782Z,25.43
2023-06-29T18:10:40.315Z,25.62
2023-06-29T18:13:41.777Z,25.61
2023-06-29T18:16:43.314Z,25.47
2023-06-29T18:19:44.891Z,25.45
2023-06-29T18:22:46.293Z,25.44
2023-06-29T18:25:47.944Z,25.37
2023-06-29T18:28:49.625Z,25.24
2023-06-29T18:31:51.041Z,25.24
2023-06-29T18:34:52.562Z,25.20
2023-06-29T18:37:54.015Z,25.24
2023-06-29T18:41:01.800Z,25.01
2023-06-29T18:44:03.704Z,25.26
2023-06-29T18:47:07.053Z,25.34
2023-06-29T18:50:08.673Z,25.52
2023-06-29T18:53:10.070Z,25.41
2023-06-29T18:56:11.465Z,25.34
2023-06-29T18:59:13.835Z,25.17
2023-06-29T19:02:15.332Z,25.18
2023-06-29T19:05:18.825Z,25.02
2023-06-29T19:08:21.297Z,24.92
2023-06-29T19:11:24.382Z,24.67
2023-06-29T19:14:25.827Z,24.63
2023-06-29T19:17:29.060Z,24.57
2023-06-29T19:20:30.702Z,24.45
2023-06-29T19:23:32.118Z,24.37
2023-06-29T19:26:33.621Z,24.15
2023-06-29T19:29:35.164Z,23.78
2023-06-29T19:32:36.913Z,23.48
2023-06-29T19:35:38.997Z,23.49
2023-06-29T19:38:40.462Z,23.31
2023-06-29T19:41:42.073Z,23.70
2023-06-29T19:44:43.502Z,23.67
2023-06-29T19:47:44.989Z,23.66
2023-06-29T19:50:46.447Z,23.68
2023-06-29T19:53:47.850Z,23.64
2023-06-29T19:56:49.766Z,23.56
2023-06-29T19:59:51.269Z,23.49
2023-06-29T20:02:53.208Z,23.45
2023-06-29T20:05:54.834Z,23.41
2023-06-29T20:08:56.261Z,23.31
2023-06-29T20:11:57.729Z,23.26
2023-06-29T20:14:59.132Z,23.22
2023-06-29T20:18:00.860Z,23.22
2023-06-29T20:21:02.394Z,23.10
2023-06-29T20:24:04.182Z,22.96
2023-06-29T20:27:08.631Z,22.93
2023-06-29T20:30:10.121Z,22.71
2023-06-29T20:33:11.523Z,22.64
2023-06-29T20:36:13.729Z,22.59
2023-06-29T20:39:15.230Z,22.53
2023-06-29T20:42:16.621Z,22.42
2023-06-29T20:45:18.042Z,22.34
2023-06-29T20:48:19.481Z,22.40
2023-06-29T20:51:20.908Z,22.26
2023-06-29T20:54:22.401Z,22.15
2023-06-29T20:57:23.788Z,21.93
2023-06-29T21:00:25.178Z,21.88
2023-06-29T21:03:27.133Z,21.77
2023-06-29T21:06:28.636Z,21.71
2023-06-29T21:09:30.043Z,21.72
2023-06-29T21:12:31.429Z,21.78
2023-06-29T21:15:33.193Z,21.74
2023-06-29T21:18:34.730Z,21.67
2023-06-29T21:21:36.198Z,21.61
2023-06-29T21:24:37.668Z,21.60
2023-06-29T21:27:39.041Z,21.09
2023-06-29T21:30:40.485Z,21.01
2023-06-29T21:33:41.960Z,21.32
2023-06-29T21:36:43.323Z,21.46
2023-06-29T21:39:44.728Z,21.50
2023-06-29T21:42:46.113Z,21.45
2023-06-29T21:45:47.691Z,21.39
2023-06-29T21:48:49.210Z,21.05
2023-06-29T21:51:50.639Z,20.72
2023-06-29T21:54:52.025Z,20.57
2023-06-29T21:57:54.779Z,20.40
2023-06-29T22:00:57.807Z,20.29
2023-06-29T22:03:59.285Z,20.17
2023-06-29T22:07:11.640Z,20.07
2023-06-29T22:10:17.394Z,19.95
2023-06-29T22:13:18.772Z,19.99
2023-06-29T22:16:21.737Z,19.92
2023-06-29T22:19:24.768Z,19.85
2023-06-29T22:22:26.139Z,19.82
2023-06-29T22:25:29.777Z,19.89
2023-06-29T22:28:31.423Z,19.85
2023-06-29T22:31:32.829Z,19.75
2023-06-29T22:34:34.249Z,19.72
2023-06-29T22:37:35.669Z,19.61
2023-06-29T22:40:37.463Z,19.59
2023-06-29T22:43:38.924Z,19.66
2023-06-29T22:46:40.318Z,19.65
2023-06-29T22:49:41.776Z,19.65
2023-06-29T22:52:43.426Z,19.58
2023-06-29T22:55:45.124Z,19.62
2023-06-29T22:58:46.729Z,19.56
2023-06-29T23:01:50.328Z,19.48
2023-06-29T23:04:53.496Z,19.32
2023-06-29T23:07:55.059Z,19.19
2023-06-29T23:10:57.538Z,19.25
2023-06-29T23:13:59.988Z,19.21
2023-06-29T23:17:04.267Z,19.18
2023-06-29T23:20:11.790Z,19.25
2023-06-29T23:23:16.248Z,19.27
2023-06-29T23:26:20.289Z,19.22
2023-06-29T23:29:21.950Z,19.17
2023-06-29T23:32:23.425Z,19.13
2023-06-29T23:35:26.474Z,19.06
2023-06-29T23:38:27.877Z,19.25
2023-06-29T23:41:29.544Z,19.06
2023-06-29T23:44:31.063Z,19.13
2023-06-29T23:47:32.483Z,19.14
2023-06-29T23:50:33.916Z,19.04
2023-06-29T23:53:38.377Z,18.86
2023-06-29T23:56:40.136Z,18.75
2023-06-29T23:59:41.630Z,18.69
